createdAt,value
2023-04-17T00:02:12.179Z,98922.64
2023-04-17T00:07:14.823Z,98922.64
2023-04-17T00:12:16.971Z,98922.84
2023-04-17T00:17:19.108Z,98919.32
2023-04-17T00:22:21.217Z,98913.79
2023-04-17T00:27:23.925Z,98916.55
2023-04-17T00:32:25.858Z,98915.31
2023-04-17T00:37:27.879Z,98919.20
2023-04-17T00:42:29.687Z,98917.23
2023-04-17T00:47:33.195Z,98923.30
2023-04-17T00:52:35.078Z,98925.63
2023-04-17T00:57:37.436Z,98925.09
2023-04-17T01:02:40.215Z,98923.52
2023-04-17T01:07:44.021Z,98927.85
2023-04-17T01:12:49.419Z,98932.15
2023-04-17T01:17:52.412Z,98936.39
2023-04-17T01:22:54.200Z,98934.77
2023-04-17T01:27:57.317Z,98931.19
2023-04-17T01:33:01.131Z,98933.77
2023-04-17T01:38:04.190Z,98926.40
2023-04-17T01:43:06.155Z,98926.73
2023-04-17T01:48:08.288Z,98925.95
2023-04-17T01:53:10.381Z,98919.55
2023-04-17T01:58:12.320Z,98922.04
2023-04-17T02:03:14.677Z,98921.02
2023-04-17T02:08:17.335Z,98923.20
2023-04-17T02:13:19.213Z,98926.11
2023-04-17T02:18:21.285Z,98928.73
2023-04-17T02:23:23.222Z,98932.15
2023-04-17T02:28:25.638Z,98936.27
2023-04-17T02:33:28.200Z,98931.13
2023-04-17T02:38:30.678Z,98932.14
2023-04-17T02:43:32.886Z,98937.64
2023-04-17T02:48:34.818Z,98942.04
2023-04-17T02:53:36.650Z,98947.77
2023-04-17T02:58:39.756Z,98951.67
2023-04-17T03:03:43.205Z,98948.81
2023-04-17T03:08:47.932Z,98947.48
2023-04-17T03:13:50.723Z,98951.35
2023-04-17T03:18:52.787Z,98955.01
2023-04-17T03:23:54.689Z,98953.27
2023-04-17T03:28:58.128Z,98952.71
2023-04-17T03:34:00.659Z,98947.70
2023-04-17T03:39:03.158Z,98952.52
2023-04-17T03:44:05.832Z,98962.63
2023-04-17T03:49:08.227Z,98968.15
2023-04-17T03:54:10.404Z,98969.77
2023-04-17T03:59:12.515Z,98978.39
2023-04-17T04:04:17.547Z,98983.81
2023-04-17T04:09:27.484Z,98983.34
2023-04-17T04:14:29.832Z,98984.44
2023-04-17T04:19:31.952Z,98983.84
2023-04-17T04:24:35.349Z,98982.77
2023-04-17T04:29:38.821Z,98990.97
2023-04-17T04:34:44.794Z,98994.66
2023-04-17T04:39:48.021Z,99003.92
2023-04-17T04:44:50.698Z,99003.64
2023-04-17T04:49:53.947Z,98996.78
2023-04-17T04:54:56.364Z,99000.29
2023-04-17T04:59:59.599Z,99005.77
2023-04-17T05:05:11.160Z,99007.41
2023-04-17T05:10:13.822Z,99013.73
2023-04-17T05:15:20.421Z,99016.63
2023-04-17T05:20:23.468Z,99016.64
2023-04-17T05:25:29.107Z,99020.55
2023-04-17T05:30:32.268Z,99023.14
2023-04-17T05:35:43.828Z,99027.98
2023-04-17T05:40:46.268Z,99027.67
2023-04-17T05:45:49.091Z,99024.68
2023-04-17T05:50:51.402Z,99025.11
2023-04-17T05:55:53.198Z,99027.77
2023-04-17T06:00:56.891Z,99024.39
2023-04-17T06:06:00.250Z,99023.78
2023-04-17T06:11:02.390Z,99032.68
2023-04-17T06:16:05.767Z,99037.02
2023-04-17T06:21:08.244Z,99036.04
2023-04-17T06:26:12.355Z,99038.65
2023-04-17T06:31:15.862Z,99038.34
2023-04-17T06:36:18.094Z,99043.89
2023-04-17T06:41:31.052Z,99052.81
2023-04-17T06:46:33.033Z,99055.56
2023-04-17T06:51:39.040Z,99058.76
2023-04-17T06:56:41.097Z,99057.45
2023-04-17T07:01:43.107Z,99055.50
2023-04-17T07:06:45.231Z,99057.80
2023-04-17T07:11:47.259Z,99064.25
2023-04-17T07:16:49.272Z,99069.91
2023-04-17T07:21:52.034Z,99075.09
2023-04-17T07:26:53.995Z,99072.98
2023-04-17T07:31:56.543Z,99070.91
2023-04-17T07:36:58.581Z,99081.80
2023-04-17T07:42:03.037Z,99086.59
2023-04-17T07:47:04.964Z,99094.50
2023-04-17T07:52:07.107Z,99103.27
2023-04-17T07:57:09.029Z,99105.63
2023-04-17T08:02:11.260Z,99100.45
2023-04-17T08:07:13.194Z,99106.31
2023-04-17T08:12:15.207Z,99104.77
2023-04-17T08:17:20.346Z,99104.42
2023-04-17T08:22:24.244Z,99107.89
2023-04-17T08:27:26.209Z,99109.09
2023-04-17T08:32:28.610Z,99105.18
2023-04-17T08:37:34.253Z,99109.02
2023-04-17T08:42:38.146Z,99108.69
2023-04-17T08:47:42.283Z,99104.54
2023-04-17T08:52:47.661Z,99107.34
2023-04-17T08:58:04.102Z,99109.11
2023-04-17T09:03:08.527Z,99106.92
2023-04-17T09:08:13.377Z,99103.25
2023-04-17T09:13:25.056Z,99105.13
2023-04-17T09:18:31.154Z,99093.48
2023-04-17T09:23:56.165Z,99096.35
2023-04-17T09:29:11.375Z,99097.23
2023-04-17T09:34:15.455Z,99101.60
2023-04-17T09:39:20.941Z,99097.33
2023-04-17T09:44:28.455Z,99083.23
2023-04-17T09:49:35.130Z,99081.52
2023-04-17T09:54:40.010Z,99082.09
2023-04-17T09:59:47.911Z,99072.36
2023-04-17T10:04:49.854Z,99069.92
2023-04-17T10:09:51.999Z,99068.80
2023-04-17T10:14:55.106Z,99069.80
2023-04-17T10:20:20.296Z,99066.71
2023-04-17T10:25:29.759Z,99064.02
2023-04-17T10:30:54.902Z,99057.45
2023-04-17T10:35:57.821Z,99056.69
2023-04-17T10:41:02.700Z,99050.06
2023-04-17T10:46:15.222Z,99043.76
2023-04-17T10:51:29.299Z,99036.82
2023-04-17T10:56:38.685Z,99033.96
2023-04-17T11:01:58.343Z,99034.66
2023-04-17T11:07:01.053Z,99030.96
2023-04-17T11:12:03.255Z,99023.13
2023-04-17T11:17:05.609Z,99029.23
2023-04-17T11:22:09.688Z,99022.23
2023-04-17T11:27:11.800Z,99016.20
2023-04-17T11:32:13.740Z,99035.91
2023-04-17T11:37:16.221Z,99035.45
2023-04-17T11:42:27.802Z,99033.08
2023-04-17T11:47:30.067Z,99033.42
2023-04-17T11:52:32.288Z,99036.54
2023-04-17T11:57:43.653Z,99039.32
2023-04-17T12:02:45.677Z,99042.55
2023-04-17T12:07:47.916Z,99048.27
2023-04-17T12:12:49.840Z,99050.00
2023-04-17T12:17:51.962Z,99051.39
2023-04-17T12:22:53.810Z,99054.82
2023-04-17T12:27:59.163Z,99053.70
2023-04-17T12:33:01.787Z,99054.42
2023-04-17T12:38:04.194Z,99051.56
2023-04-17T12:43:08.715Z,99049.70
2023-04-17T12:48:11.511Z,99050.47
2023-04-17T12:53:14.605Z,99047.91
2023-04-17T12:58:16.881Z,99052.98
2023-04-17T13:03:18.887Z,99055.77
2023-04-17T13:08:21.521Z,99058.50
2023-04-17T13:13:23.559Z,99057.92
2023-04-17T13:18:26.491Z,99057.97
2023-04-17T13:23:28.440Z,99060.84
2023-04-17T13:28:30.519Z,99064.47
2023-04-17T13:33:32.438Z,99062.79
2023-04-17T13:38:35.074Z,99064.35
2023-04-17T13:43:37.101Z,99062.88
2023-04-17T13:48:39.368Z,99061.53
2023-04-17T13:53:41.199Z,99057.45
2023-04-17T13:58:44.540Z,99056.33
2023-04-17T14:03:47.417Z,99058.80
2023-04-17T14:08:49.845Z,99053.58
2023-04-17T14:13:51.820Z,99057.38
2023-04-17T14:18:54.099Z,99053.56
2023-04-17T14:23:56.991Z,99055.94
2023-04-17T14:28:59.017Z,99053.03
2023-04-17T14:34:00.799Z,99048.48
2023-04-17T14:39:03.374Z,99050.70
2023-04-17T14:44:05.376Z,99063.58
2023-04-17T14:49:08.661Z,99062.20
2023-04-17T14:54:10.518Z,99062.16
2023-04-17T14:59:12.729Z,99066.73
2023-04-17T15:04:15.130Z,99070.17
2023-04-17T15:09:17.335Z,99068.59
2023-04-17T15:14:19.974Z,99072.69
2023-04-17T15:19:21.992Z,99065.92
2023-04-17T15:24:23.779Z,99061.85
2023-04-17T15:29:25.841Z,99059.98
2023-04-17T15:34:27.669Z,99065.86
2023-04-17T15:39:30.416Z,99060.85
2023-04-17T15:44:34.090Z,99060.67
2023-04-17T15:49:36.074Z,99061.39
2023-04-17T15:54:37.936Z,99066.34
2023-04-17T15:59:40.115Z,99066.84
2023-04-17T16:04:43.873Z,99065.16
2023-04-17T16:09:48.048Z,99063.48
2023-04-17T16:14:50.778Z,99062.58
2023-04-17T16:19:52.947Z,99063.64
2023-04-17T16:24:54.764Z,99070.07
2023-04-17T16:29:56.837Z,99074.28
2023-04-17T16:34:59.168Z,99071.91
2023-04-17T16:40:05.328Z,99076.85
2023-04-17T16:45:08.314Z,99081.05
2023-04-17T16:50:12.556Z,99081.66
2023-04-17T16:55:17.148Z,99087.23
2023-04-17T17:00:20.206Z,99093.88
2023-04-17T17:05:22.223Z,99094.58
2023-04-17T17:10:24.238Z,99096.86
2023-04-17T17:15:26.569Z,99097.50
2023-04-17T17:20:28.735Z,99098.34
2023-04-17T17:25:30.733Z,99102.07
2023-04-17T17:30:32.837Z,99107.28
2023-04-17T17:35:34.770Z,99108.46
2023-04-17T17:40:37.452Z,99115.52
2023-04-17T17:45:39.518Z,99122.95
2023-04-17T17:50:42.943Z,99119.16
2023-04-17T17:55:53.173Z,99120.96
2023-04-17T18:00:55.317Z,99125.27
2023-04-17T18:05:57.263Z,99126.63
2023-04-17T18:11:01.616Z,99130.36
2023-04-17T18:16:05.019Z,99137.89
2023-04-17T18:21:08.304Z,99146.87
2023-04-17T18:26:10.281Z,99152.64
2023-04-17T18:31:12.585Z,99153.05
2023-04-17T18:36:14.394Z,99156.73
2023-04-17T18:41:16.736Z,99156.76
2023-04-17T18:46:18.784Z,99158.66
2023-04-17T18:51:21.818Z,99156.17
2023-04-17T18:56:26.787Z,99158.84
2023-04-17T19:01:29.153Z,99160.13
2023-04-17T19:06:31.719Z,99154.30
2023-04-17T19:11:34.119Z,99162.64
2023-04-17T19:16:36.265Z,99165.83
2023-04-17T19:21:38.480Z,99163.26
2023-04-17T19:26:40.796Z,99164.39
2023-04-17T19:31:43.452Z,99163.25
2023-04-17T19:36:45.422Z,99163.85
2023-04-17T19:41:51.061Z,99162.13
2023-04-17T19:46:53.302Z,99158.48
2023-04-17T19:51:55.356Z,99152.15
2023-04-17T19:56:57.212Z,99153.02
2023-04-17T20:01:59.678Z,99151.47
2023-04-17T20:07:02.230Z,99155.77
2023-04-17T20:12:05.807Z,99149.91
2023-04-17T20:17:08.715Z,99146.16
2023-04-17T20:22:10.964Z,99148.16
2023-04-17T20:27:12.792Z,99150.33
2023-04-17T20:32:15.296Z,99150.58
2023-04-17T20:37:17.193Z,99148.65
2023-04-17T20:42:19.591Z,99146.61
2023-04-17T20:47:21.561Z,99145.44
2023-04-17T20:52:23.916Z,99149.37
2023-04-17T20:57:25.967Z,99150.36
2023-04-17T21:02:28.165Z,99149.23
2023-04-17T21:07:31.020Z,99150.16
2023-04-17T21:12:35.324Z,99151.15
2023-04-17T21:17:39.446Z,99151.15
2023-04-17T21:22:41.842Z,99152.73
2023-04-17T21:27:43.834Z,99148.68
2023-04-17T21:32:47.611Z,99142.73
2023-04-17T21:37:49.704Z,99140.28
2023-04-17T21:42:52.945Z,99142.46
2023-04-17T21:47:54.908Z,99142.79
2023-04-17T21:52:58.531Z,99141.27
2023-04-17T21:58:00.632Z,99140.75
2023-04-17T22:03:03.341Z,99137.78
2023-04-17T22:08:05.299Z,99138.17
2023-04-17T22:13:07.363Z,99137.27
2023-04-17T22:18:09.349Z,99139.98
2023-04-17T22:23:11.265Z,99140.64
2023-04-17T22:28:13.144Z,99141.64
2023-04-17T22:33:15.526Z,99142.86
2023-04-17T22:38:18.988Z,99144.30
2023-04-17T22:43:21.040Z,99139.33
2023-04-17T22:48:24.691Z,99144.54
2023-04-17T22:53:26.937Z,99143.88
2023-04-17T22:58:31.985Z,99142.52
2023-04-17T23:03:35.066Z,99140.35
2023-04-17T23:08:37.556Z,99139.69
2023-04-17T23:13:45.780Z,99135.73
2023-04-17T23:18:47.998Z,99134.66
2023-04-17T23:23:51.670Z,99131.65
2023-04-17T23:28:53.623Z,99128.91
2023-04-17T23:33:55.891Z,99124.58
2023-04-17T23:38:57.746Z,99122.10
2023-04-17T23:44:00.593Z,99121.02
2023-04-17T23:49:06.709Z,99116.54
2023-04-17T23:54:10.452Z,99116.60
2023-04-17T23:59:12.288Z,99114.20
